createdAt,value
2017-09-05T00:00:51.800Z,0
2017-09-05T00:01:51.546Z,0
2017-09-05T00:02:51.875Z,0
2017-09-05T00:03:51.885Z,0
2017-09-05T00:04:51.945Z,0
2017-09-05T00:05:51.544Z,0
2017-09-05T00:06:51.930Z,0
2017-09-05T00:07:51.716Z,0
2017-09-05T00:08:51.765Z,0
2017-09-05T00:09:52.109Z,0
2017-09-05T00:10:52.141Z,0
2017-09-05T00:11:52.162Z,0
2017-09-05T00:12:51.572Z,0
2017-09-05T00:13:51.587Z,0
2017-09-05T00:14:52.331Z,0
2017-09-05T00:15:52.042Z,0
2017-09-05T00:16:52.072Z,0
2017-09-05T00:17:51.774Z,0
2017-09-05T00:18:52.831Z,0
2017-09-05T00:19:52.544Z,0
2017-09-05T00:20:53.276Z,0
2017-09-05T00:21:53.294Z,0
2017-09-05T00:22:53.341Z,0
2017-09-05T00:23:52.733Z,0
2017-09-05T00:24:53.158Z,0
2017-09-05T00:25:53.555Z,0
2017-09-05T00:26:53.885Z,0
2017-09-05T00:27:53.576Z,0
2017-09-05T00:28:53.918Z,0
2017-09-05T00:29:53.362Z,0
2017-09-05T00:30:53.742Z,0
2017-09-05T00:31:54.058Z,0
2017-09-05T00:32:54.078Z,0
2017-09-05T00:33:55.267Z,0
2017-09-05T00:34:55.322Z,0
2017-09-05T00:35:55.364Z,0
2017-09-05T00:36:55.685Z,0
2017-09-05T00:37:55.422Z,0
2017-09-05T00:38:55.751Z,0
2017-09-05T00:39:56.116Z,0
2017-09-05T00:40:55.811Z,0
2017-09-05T00:42:28.093Z,0
2017-09-05T00:43:08.715Z,0
2017-09-05T00:44:08.410Z,0
2017-09-05T00:45:08.850Z,0
2017-09-05T00:46:07.911Z,0
2017-09-05T00:47:08.843Z,0
2017-09-05T00:48:09.185Z,0
2017-09-05T00:49:09.174Z,0
2017-09-05T00:50:09.107Z,0
2017-09-05T00:51:08.979Z,0
2017-09-05T00:52:09.306Z,0
2017-09-05T00:53:08.420Z,0
2017-09-05T00:54:09.421Z,0
2017-09-05T00:55:09.803Z,0
2017-09-05T00:56:09.493Z,0
2017-09-05T00:57:10.153Z,0
2017-09-05T00:58:09.513Z,0
2017-09-05T00:59:10.481Z,0
2017-09-05T01:00:09.946Z,0
2017-09-05T01:01:10.615Z,0
2017-09-05T01:02:10.602Z,0
2017-09-05T01:03:10.747Z,0
2017-09-05T01:04:10.380Z,0
2017-09-05T01:05:10.478Z,0
2017-09-05T01:06:10.851Z,0
2017-09-05T01:07:11.556Z,0
2017-09-05T01:08:11.276Z,0
2017-09-05T01:09:10.977Z,0
2017-09-05T01:10:11.518Z,0
2017-09-05T01:11:11.856Z,0
2017-09-05T01:12:12.185Z,0
2017-09-05T01:13:11.914Z,0
2017-09-05T01:14:11.911Z,0
2017-09-05T01:15:12.002Z,0
2017-09-05T01:16:12.010Z,0
2017-09-05T01:17:12.646Z,0
2017-09-05T01:18:12.676Z,0
2017-09-05T01:19:12.409Z,0
2017-09-05T01:20:11.842Z,0
2017-09-05T01:21:13.121Z,0
2017-09-05T01:22:13.132Z,0
2017-09-05T01:23:12.855Z,0
2017-09-05T01:24:12.860Z,0
2017-09-05T01:25:12.902Z,0
2017-09-05T01:26:12.951Z,0
2017-09-05T01:27:13.346Z,0
2017-09-05T01:28:13.413Z,0
2017-09-05T01:29:13.076Z,0
2017-09-05T01:30:12.807Z,0
2017-09-05T01:31:13.819Z,0
2017-09-05T01:32:13.235Z,0
2017-09-05T01:33:13.911Z,0
2017-09-05T01:34:13.922Z,0
2017-09-05T01:35:14.301Z,0
2017-09-05T01:36:14.659Z,0
2017-09-05T01:37:14.717Z,0
2017-09-05T01:38:14.715Z,0
2017-09-05T01:39:14.455Z,0
2017-09-05T01:40:14.470Z,0
2017-09-05T01:41:14.486Z,0
2017-09-05T01:42:14.835Z,0
2017-09-05T01:43:14.592Z,0
2017-09-05T01:44:14.955Z,0
2017-09-05T01:45:14.948Z,0
2017-09-05T01:46:14.704Z,0
2017-09-05T01:47:15.647Z,0
2017-09-05T01:48:15.734Z,0
2017-09-05T01:49:15.746Z,0
2017-09-05T01:50:15.462Z,0
2017-09-05T01:51:15.782Z,0
2017-09-05T01:52:15.566Z,0
2017-09-05T01:53:16.275Z,0
2017-09-05T01:54:16.273Z,0
2017-09-05T01:55:16.356Z,0
2017-09-05T01:56:16.387Z,0
2017-09-05T01:57:16.102Z,0
2017-09-05T01:58:16.108Z,0
2017-09-05T01:59:15.824Z,0
2017-09-05T02:00:16.232Z,0
2017-09-05T02:01:16.269Z,0
2017-09-05T02:02:16.865Z,0
2017-09-05T02:03:16.296Z,0
2017-09-05T02:04:16.729Z,0
2017-09-05T02:05:16.427Z,0
2017-09-05T02:06:17.111Z,0
2017-09-05T02:07:17.445Z,0
2017-09-05T02:08:17.112Z,0
2017-09-05T02:09:17.484Z,0
2017-09-05T02:10:17.534Z,0
2017-09-05T02:11:17.238Z,0
2017-09-05T02:12:17.289Z,0
2017-09-05T02:13:17.315Z,0
2017-09-05T02:14:17.313Z,0
2017-09-05T02:15:17.403Z,0
2017-09-05T02:16:17.407Z,0
2017-09-05T02:17:17.478Z,0
2017-09-05T02:18:17.485Z,0
2017-09-05T02:19:17.174Z,0
2017-09-05T02:20:17.855Z,0
2017-09-05T02:21:17.844Z,0
2017-09-05T02:22:17.920Z,0
2017-09-05T02:23:18.213Z,0
2017-09-05T02:24:17.910Z,0
2017-09-05T02:25:17.947Z,0
2017-09-05T02:26:18.008Z,0
2017-09-05T02:27:18.017Z,0
2017-09-05T02:28:18.059Z,0
2017-09-05T02:29:18.102Z,0
2017-09-05T02:30:18.140Z,0
2017-09-05T02:31:18.176Z,0
2017-09-05T02:32:18.220Z,0
2017-09-05T02:33:18.910Z,0
2017-09-05T02:34:18.614Z,0
2017-09-05T02:35:19.017Z,0
2017-09-05T02:36:18.692Z,0
2017-09-05T02:37:19.085Z,0
2017-09-05T02:38:19.444Z,0
2017-09-05T02:39:19.499Z,0
2017-09-05T02:40:19.819Z,0
2017-09-05T02:41:18.921Z,0
2017-09-05T02:42:19.563Z,0
2017-09-05T02:43:19.612Z,0
2017-09-05T02:44:19.639Z,0
2017-09-05T02:45:19.369Z,0
2017-09-05T02:46:20.013Z,0
2017-09-05T02:47:20.101Z,0
2017-09-05T02:48:20.172Z,0
2017-09-05T02:49:19.587Z,0
2017-09-05T02:50:20.278Z,0
2017-09-05T02:51:20.010Z,0
2017-09-05T02:52:20.354Z,0
2017-09-05T02:53:20.362Z,0
2017-09-05T02:54:20.411Z,0
2017-09-05T02:55:20.433Z,0
2017-09-05T02:56:20.462Z,0
2017-09-05T02:57:20.811Z,0
2017-09-05T02:58:20.549Z,0
2017-09-05T02:59:20.656Z,0
2017-09-05T03:00:20.666Z,0
2017-09-05T03:01:21.050Z,0
2017-09-05T03:02:21.149Z,0
2017-09-05T03:03:21.249Z,0
2017-09-05T03:04:21.914Z,0
2017-09-05T03:05:21.626Z,0
2017-09-05T03:06:22.308Z,0
2017-09-05T03:07:22.642Z,0
2017-09-05T03:08:22.640Z,0
2017-09-05T03:09:22.368Z,0
2017-09-05T03:10:22.715Z,0
2017-09-05T03:11:22.431Z,0
2017-09-05T03:12:22.485Z,0
2017-09-05T03:13:22.816Z,0
2017-09-05T03:14:23.502Z,0
2017-09-05T03:15:24.180Z,0
2017-09-05T03:16:23.906Z,0
2017-09-05T03:17:23.916Z,0
2017-09-05T03:18:23.650Z,0
2017-09-05T03:19:24.064Z,0
2017-09-05T03:20:24.041Z,0
2017-09-05T03:21:24.711Z,0
2017-09-05T03:22:24.413Z,0
2017-09-05T03:23:24.496Z,0
2017-09-05T03:24:24.840Z,0
2017-09-05T03:25:24.517Z,0
2017-09-05T03:26:24.887Z,0
2017-09-05T03:27:24.938Z,0
2017-09-05T03:28:24.640Z,0
2017-09-05T03:29:24.666Z,0
2017-09-05T03:30:25.059Z,0
2017-09-05T03:31:25.078Z,0
2017-09-05T03:32:25.467Z,0
2017-09-05T03:33:25.179Z,0
2017-09-05T03:34:25.207Z,0
2017-09-05T03:35:24.914Z,0
2017-09-05T03:36:25.605Z,0
2017-09-05T03:37:25.319Z,0
2017-09-05T03:38:25.641Z,0
2017-09-05T03:39:25.113Z,0
2017-09-05T03:40:25.446Z,0
2017-09-05T03:41:25.850Z,0
2017-09-05T03:42:26.177Z,0
2017-09-05T03:43:26.183Z,0
2017-09-05T03:44:25.905Z,0
2017-09-05T03:45:26.579Z,0
2017-09-05T03:46:26.026Z,0
2017-09-05T03:47:26.741Z,0
2017-09-05T03:48:26.446Z,0
2017-09-05T03:49:26.814Z,0
2017-09-05T03:50:26.832Z,0
2017-09-05T03:51:26.834Z,0
2017-09-05T03:52:27.177Z,0
2017-09-05T03:53:27.211Z,0
2017-09-05T03:54:27.257Z,4
2017-09-05T03:55:27.292Z,4
2017-09-05T03:56:27.318Z,0
2017-09-05T03:57:27.346Z,0
2017-09-05T03:58:27.083Z,4
2017-09-05T03:59:27.716Z,4
2017-09-05T04:00:27.799Z,0
2017-09-05T04:01:27.784Z,4
2017-09-05T04:02:27.262Z,4
2017-09-05T04:03:27.965Z,4
2017-09-05T04:04:27.693Z,4
2017-09-05T04:05:28.118Z,8
2017-09-05T04:06:27.746Z,4
2017-09-05T04:07:27.784Z,8
2017-09-05T04:08:28.146Z,8
2017-09-05T04:09:28.185Z,12
2017-09-05T04:10:28.285Z,12
2017-09-05T04:11:28.668Z,16
2017-09-05T04:12:28.370Z,16
2017-09-05T04:13:29.358Z,20
2017-09-05T04:14:29.437Z,24
2017-09-05T04:15:28.799Z,24
2017-09-05T04:16:29.501Z,28
2017-09-05T04:17:29.532Z,32
2017-09-05T04:18:28.947Z,36
2017-09-05T04:19:28.974Z,44
2017-09-05T04:20:29.911Z,48
2017-09-05T04:21:29.676Z,56
2017-09-05T04:22:29.736Z,64
2017-09-05T04:23:29.742Z,72
2017-09-05T04:24:29.778Z,84
2017-09-05T04:25:30.160Z,96
2017-09-05T04:26:30.204Z,104
2017-09-05T04:27:29.948Z,124
2017-09-05T04:28:30.281Z,136
2017-09-05T04:29:30.350Z,152
2017-09-05T04:30:30.685Z,172
2017-09-05T04:31:30.399Z,192
2017-09-05T04:32:30.781Z,216
2017-09-05T04:33:30.788Z,240
2017-09-05T04:34:30.490Z,264
2017-09-05T04:35:30.486Z,288
2017-09-05T04:36:30.885Z,316
2017-09-05T04:37:30.855Z,344
2017-09-05T04:38:30.277Z,372
2017-09-05T04:39:30.960Z,400
2017-09-05T04:40:30.691Z,424
2017-09-05T04:41:31.072Z,460
2017-09-05T04:42:31.422Z,488
2017-09-05T04:43:31.160Z,520
2017-09-05T04:44:32.128Z,552
2017-09-05T04:45:31.911Z,584
2017-09-05T04:46:32.266Z,620
2017-09-05T04:47:32.259Z,648
2017-09-05T04:48:31.982Z,684
2017-09-05T04:49:32.059Z,720
2017-09-05T04:50:32.116Z,760
2017-09-05T04:51:32.424Z,800
2017-09-05T04:52:32.427Z,840
2017-09-05T04:53:32.200Z,880
2017-09-05T04:54:32.260Z,928
2017-09-05T04:55:32.288Z,968
2017-09-05T04:56:32.654Z,1008
2017-09-05T04:57:32.335Z,1048
2017-09-05T04:58:32.069Z,1088
2017-09-05T04:59:32.732Z,1132
2017-09-05T05:00:32.809Z,1172
2017-09-05T05:01:32.812Z,1212
2017-09-05T05:02:32.652Z,1252
2017-09-05T05:03:32.543Z,1296
2017-09-05T05:04:32.305Z,1336
2017-09-05T05:05:32.654Z,1372
2017-09-05T05:06:33.376Z,1408
2017-09-05T05:07:33.370Z,1440
2017-09-05T05:08:33.406Z,1472
2017-09-05T05:09:34.124Z,1508
2017-09-05T05:10:33.858Z,1536
2017-09-05T05:11:33.940Z,1576
2017-09-05T05:12:34.616Z,1620
2017-09-05T05:13:34.636Z,1664
2017-09-05T05:14:34.385Z,1704
2017-09-05T05:15:34.462Z,1740
2017-09-05T05:16:34.200Z,1776
2017-09-05T05:17:34.918Z,1812
2017-09-05T05:18:35.264Z,1844
2017-09-05T05:19:34.677Z,1868
2017-09-05T05:20:35.711Z,1900
2017-09-05T05:21:36.037Z,1936
2017-09-05T05:22:36.041Z,1972
2017-09-05T05:23:36.136Z,2008
2017-09-05T05:24:35.528Z,2048
2017-09-05T05:25:36.163Z,2088
2017-09-05T05:26:36.170Z,2128
2017-09-05T05:27:36.228Z,2172
2017-09-05T05:28:36.261Z,2212
2017-09-05T05:29:35.940Z,2256
2017-09-05T05:30:36.338Z,2300
2017-09-05T05:31:36.407Z,2348
2017-09-05T05:32:36.078Z,2392
2017-09-05T05:33:36.414Z,2428
2017-09-05T05:34:35.498Z,2464
2017-09-05T05:35:36.471Z,2500
2017-09-05T05:36:36.506Z,2544
2017-09-05T05:37:36.528Z,2580
2017-09-05T05:38:35.902Z,2648
2017-09-05T05:39:36.570Z,2792
2017-09-05T05:40:36.273Z,2948
2017-09-05T05:41:36.368Z,3028
2017-09-05T05:42:36.402Z,3032
2017-09-05T05:43:36.428Z,3040
2017-09-05T05:44:35.880Z,3064
2017-09-05T05:45:37.139Z,3116
2017-09-05T05:46:37.211Z,3252
2017-09-05T05:47:36.608Z,3308
2017-09-05T05:48:37.371Z,3256
2017-09-05T05:49:37.029Z,3248
2017-09-05T05:50:38.017Z,3292
2017-09-05T05:51:37.732Z,3344
2017-09-05T05:52:38.106Z,3436
2017-09-05T05:53:38.439Z,3608
2017-09-05T05:54:38.462Z,3788
2017-09-05T05:55:38.196Z,3888
2017-09-05T05:56:38.558Z,3900
2017-09-05T05:57:38.927Z,3952
2017-09-05T05:58:38.666Z,4012
2017-09-05T05:59:39.016Z,4180
2017-09-05T06:00:39.025Z,4460
2017-09-05T06:01:39.377Z,4596
2017-09-05T06:02:38.883Z,4536
2017-09-05T06:03:39.568Z,4640
2017-09-05T06:04:39.293Z,5072
2017-09-05T06:05:40.261Z,5316
2017-09-05T06:06:39.346Z,5516
2017-09-05T06:07:40.588Z,5732
2017-09-05T06:08:39.799Z,5728
2017-09-05T06:09:39.806Z,5724
2017-09-05T06:10:40.480Z,6012
2017-09-05T06:11:40.510Z,6168
2017-09-05T06:12:40.532Z,6248
2017-09-05T06:13:40.228Z,6372
2017-09-05T06:14:41.036Z,6428
2017-09-05T06:15:40.710Z,6404
2017-09-05T06:16:40.337Z,6236
2017-09-05T06:17:41.260Z,6308
2017-09-05T06:18:40.705Z,6564
2017-09-05T06:19:40.418Z,6720
2017-09-05T06:20:40.868Z,6808
2017-09-05T06:21:40.846Z,6880
2017-09-05T06:22:40.932Z,6920
2017-09-05T06:23:41.251Z,6976
2017-09-05T06:24:41.279Z,6984
2017-09-05T06:25:40.718Z,7004
2017-09-05T06:26:41.363Z,7000
2017-09-05T06:27:42.006Z,6968
2017-09-05T06:28:42.082Z,7016
2017-09-05T06:29:42.084Z,7044
2017-09-05T06:30:42.159Z,7084
2017-09-05T06:31:41.876Z,7124
2017-09-05T06:32:42.285Z,7124
2017-09-05T06:33:42.855Z,7120
2017-09-05T06:34:42.022Z,7116
2017-09-05T06:35:42.731Z,7116
2017-09-05T06:36:43.084Z,7124
2017-09-05T06:37:43.086Z,7160
2017-09-05T06:38:43.106Z,7208
2017-09-05T06:39:42.847Z,7176
2017-09-05T06:40:42.893Z,7148
2017-09-05T06:41:43.260Z,7180
2017-09-05T06:42:43.262Z,7208
2017-09-05T06:43:43.299Z,7244
2017-09-05T06:44:42.764Z,7348
2017-09-05T06:45:43.492Z,7448
2017-09-05T06:46:43.191Z,7352
2017-09-05T06:47:44.177Z,7488
2017-09-05T06:48:43.895Z,7748
2017-09-05T06:49:43.997Z,7620
2017-09-05T06:50:44.047Z,7544
2017-09-05T06:51:44.392Z,7472
2017-09-05T06:52:44.388Z,7524
2017-09-05T06:53:44.390Z,7584
2017-09-05T06:54:44.466Z,7608
2017-09-05T06:55:44.492Z,7652
2017-09-05T06:56:44.563Z,7900
2017-09-05T06:57:43.979Z,8292
2017-09-05T06:58:44.332Z,8600
2017-09-05T06:59:44.974Z,8548
2017-09-05T07:00:44.694Z,8432
2017-09-05T07:01:45.087Z,8236
2017-09-05T07:02:44.550Z,8240
2017-09-05T07:03:45.559Z,8736
2017-09-05T07:04:45.298Z,9164
2017-09-05T07:05:45.367Z,9192
2017-09-05T07:06:45.690Z,9676
2017-09-05T07:07:45.433Z,11148
2017-09-05T07:08:46.182Z,13096
2017-09-05T07:09:45.886Z,15052
2017-09-05T07:10:46.588Z,17280
2017-09-05T07:11:46.597Z,19200
2017-09-05T07:12:45.776Z,20992
2017-09-05T07:13:46.549Z,21856
2017-09-05T07:14:46.181Z,21920
2017-09-05T07:15:46.564Z,20416
2017-09-05T07:16:47.252Z,23040
2017-09-05T07:17:46.981Z,27008
2017-09-05T07:18:47.727Z,28416
2017-09-05T07:19:48.109Z,30048
2017-09-05T07:20:48.188Z,32096
2017-09-05T07:21:48.190Z,32800
2017-09-05T07:22:48.583Z,32224
2017-09-05T07:23:48.633Z,31936
2017-09-05T07:24:48.912Z,33920
2017-09-05T07:25:49.641Z,34784
2017-09-05T07:26:49.223Z,33376
2017-09-05T07:27:48.488Z,33248
2017-09-05T07:28:49.462Z,31904
2017-09-05T07:29:49.523Z,27168
2017-09-05T07:30:49.276Z,24544
2017-09-05T07:31:48.615Z,22976
2017-09-05T07:32:49.597Z,22048
2017-09-05T07:33:49.236Z,20224
2017-09-05T07:34:49.629Z,16896
2017-09-05T07:35:49.663Z,14520
2017-09-05T07:36:49.368Z,13336
2017-09-05T07:37:49.422Z,12640
2017-09-05T07:38:49.855Z,11900
2017-09-05T07:39:50.201Z,11148
2017-09-05T07:40:50.524Z,10464
2017-09-05T07:41:50.887Z,10016
2017-09-05T07:42:50.897Z,9780
2017-09-05T07:43:50.965Z,9692
2017-09-05T07:44:51.011Z,9688
2017-09-05T07:45:50.695Z,9840
2017-09-05T07:46:51.035Z,9920
2017-09-05T07:47:50.801Z,9964
2017-09-05T07:48:51.249Z,9964
2017-09-05T07:49:51.229Z,9888
2017-09-05T07:50:51.617Z,9836
2017-09-05T07:51:51.638Z,9804
2017-09-05T07:52:51.415Z,9808
2017-09-05T07:53:50.808Z,9652
2017-09-05T07:54:51.263Z,9604
2017-09-05T07:55:51.186Z,9844
2017-09-05T07:56:51.908Z,10016
2017-09-05T07:57:52.638Z,9812
2017-09-05T07:58:52.629Z,9592
2017-09-05T07:59:52.633Z,9640
2017-09-05T08:00:52.374Z,9688
2017-09-05T08:01:52.747Z,9732
2017-09-05T08:02:52.838Z,9712
2017-09-05T08:03:52.502Z,9668
2017-09-05T08:04:52.617Z,9732
2017-09-05T08:05:52.636Z,9796
2017-09-05T08:06:52.389Z,9916
2017-09-05T08:07:53.390Z,10100
2017-09-05T08:08:52.828Z,10196
2017-09-05T08:09:53.125Z,10288
2017-09-05T08:10:52.898Z,10396
2017-09-05T08:11:53.586Z,10548
2017-09-05T08:12:53.296Z,10584
2017-09-05T08:13:53.051Z,10536
2017-09-05T08:14:53.451Z,10732
2017-09-05T08:15:53.253Z,10852
2017-09-05T08:16:53.688Z,11168
2017-09-05T08:17:54.318Z,13328
2017-09-05T08:18:54.706Z,15936
2017-09-05T08:19:54.393Z,14768
2017-09-05T08:20:54.718Z,13408
2017-09-05T08:21:54.766Z,13392
2017-09-05T08:22:54.852Z,13480
2017-09-05T08:23:54.543Z,13004
2017-09-05T08:24:54.925Z,12232
2017-09-05T08:25:55.374Z,11928
2017-09-05T08:26:54.690Z,11692
2017-09-05T08:27:55.163Z,11636
2017-09-05T08:28:55.147Z,11488
2017-09-05T08:29:55.297Z,11284
2017-09-05T08:30:55.991Z,11152
2017-09-05T08:31:55.720Z,10936
2017-09-05T08:32:56.064Z,10812
2017-09-05T08:33:56.084Z,10772
2017-09-05T08:34:56.448Z,10824
2017-09-05T08:35:56.207Z,10520
2017-09-05T08:36:56.653Z,10700
2017-09-05T08:37:56.323Z,10768
2017-09-05T08:38:56.723Z,10720
2017-09-05T08:39:56.473Z,10836
2017-09-05T08:40:56.473Z,10948
2017-09-05T08:41:56.493Z,11052
2017-09-05T08:42:56.978Z,11072
2017-09-05T08:43:56.886Z,11036
2017-09-05T08:44:56.619Z,11088
2017-09-05T08:45:57.059Z,11220
2017-09-05T08:46:56.446Z,10964
2017-09-05T08:47:57.111Z,11336
2017-09-05T08:48:56.517Z,11420
2017-09-05T08:49:56.911Z,11408
2017-09-05T08:50:57.238Z,11396
2017-09-05T08:51:57.402Z,11464
2017-09-05T08:52:57.330Z,11540
2017-09-05T08:53:57.081Z,11620
2017-09-05T08:54:57.456Z,11504
2017-09-05T08:55:57.203Z,11504
2017-09-05T08:56:57.175Z,11392
2017-09-05T08:57:57.561Z,11412
2017-09-05T08:58:57.902Z,11560
2017-09-05T08:59:57.990Z,11672
2017-09-05T09:00:58.034Z,11756
2017-09-05T09:01:58.095Z,11820
2017-09-05T09:02:57.613Z,11904
2017-09-05T09:03:57.861Z,12064
2017-09-05T09:04:58.171Z,12016
2017-09-05T09:05:57.619Z,12160
2017-09-05T09:06:58.325Z,11956
2017-09-05T09:07:58.667Z,12128
2017-09-05T09:08:59.054Z,12424
2017-09-05T09:09:58.134Z,12648
2017-09-05T09:10:59.159Z,13040
2017-09-05T09:11:59.182Z,13340
2017-09-05T09:12:58.912Z,13552
2017-09-05T09:13:59.766Z,13628
2017-09-05T09:14:58.785Z,13756
2017-09-05T09:15:59.505Z,14160
2017-09-05T09:16:59.831Z,14584
2017-09-05T09:17:59.282Z,15384
2017-09-05T09:18:59.956Z,16288
2017-09-05T09:20:00.058Z,17216
2017-09-05T09:21:00.063Z,18432
2017-09-05T09:21:59.827Z,20224
2017-09-05T09:23:00.555Z,22624
2017-09-05T09:24:00.630Z,24000
2017-09-05T09:25:00.059Z,25152
2017-09-05T09:26:00.424Z,27328
2017-09-05T09:27:00.600Z,31584
2017-09-05T09:28:00.459Z,35296
2017-09-05T09:29:00.517Z,39072
2017-09-05T09:30:00.909Z,42656
2017-09-05T09:31:00.613Z,43936
2017-09-05T09:32:00.418Z,44736
2017-09-05T09:33:01.466Z,53472
2017-09-05T09:34:01.473Z,53760
2017-09-05T09:35:01.234Z,48064
2017-09-05T09:36:01.957Z,47264
2017-09-05T09:37:02.063Z,49536
2017-09-05T09:38:01.758Z,53056
2017-09-05T09:39:02.225Z,55904
2017-09-05T09:40:01.920Z,57280
2017-09-05T09:41:02.369Z,58816
2017-09-05T09:42:03.037Z,58720
2017-09-05T09:43:02.467Z,57600
2017-09-05T09:44:03.158Z,58304
2017-09-05T09:45:03.603Z,60224
2017-09-05T09:46:03.893Z,60960
2017-09-05T09:47:03.317Z,61376
2017-09-05T09:48:04.328Z,61760
2017-09-05T09:49:04.443Z,60128
2017-09-05T09:50:04.349Z,57728
2017-09-05T09:51:04.442Z,56576
2017-09-05T09:52:05.135Z,57568
2017-09-05T09:53:04.915Z,58400
2017-09-05T09:54:05.326Z,61568
2017-09-05T09:55:05.666Z,63680
2017-09-05T09:56:05.361Z,64224
2017-09-05T09:57:06.054Z,67488
2017-09-05T09:58:06.135Z,69696
2017-09-05T09:59:06.181Z,69920
2017-09-05T10:00:06.970Z,67936
2017-09-05T10:01:06.285Z,71392
2017-09-05T10:02:06.670Z,78208
2017-09-05T10:03:06.891Z,78912
2017-09-05T10:04:07.047Z,75712
2017-09-05T10:05:06.670Z,76672
2017-09-05T10:06:06.847Z,77024
2017-09-05T10:07:06.617Z,73280
2017-09-05T10:08:06.957Z,68576
2017-09-05T10:09:07.029Z,63584
2017-09-05T10:10:06.881Z,64608
2017-09-05T10:11:07.290Z,68256
2017-09-05T10:12:07.658Z,68832
2017-09-05T10:13:07.711Z,68992
2017-09-05T10:14:07.424Z,67168
2017-09-05T10:15:07.510Z,67392
2017-09-05T10:16:07.929Z,63552
2017-09-05T10:17:08.226Z,57792
2017-09-05T10:18:08.292Z,55136
2017-09-05T10:19:08.150Z,57952
2017-09-05T10:20:08.253Z,59072
2017-09-05T10:21:08.989Z,60960
2017-09-05T10:22:09.666Z,61056
2017-09-05T10:23:09.388Z,60640
2017-09-05T10:24:09.418Z,55872
2017-09-05T10:25:09.849Z,57728
2017-09-05T10:26:09.192Z,63968
2017-09-05T10:27:09.266Z,58368
2017-09-05T10:28:09.596Z,56000
2017-09-05T10:29:09.654Z,58432
2017-09-05T10:30:10.398Z,60960
2017-09-05T10:31:09.733Z,62112
2017-09-05T10:32:09.783Z,58624
2017-09-05T10:33:10.154Z,57312
2017-09-05T10:34:10.157Z,61248
2017-09-05T10:35:10.295Z,61280
2017-09-05T10:36:09.959Z,65184
2017-09-05T10:37:10.300Z,63520
2017-09-05T10:38:09.729Z,67008
2017-09-05T10:39:10.057Z,69696
2017-09-05T10:40:09.860Z,64288
2017-09-05T10:41:10.145Z,58048
2017-09-05T10:42:09.938Z,18272
2017-09-05T10:43:10.254Z,31456
2017-09-05T10:44:10.657Z,12412
2017-09-05T10:45:10.437Z,10340
2017-09-05T10:46:10.852Z,9784
2017-09-05T10:47:11.924Z,9552
2017-09-05T10:48:11.617Z,9256
2017-09-05T10:49:11.721Z,8800
2017-09-05T10:50:11.748Z,8396
2017-09-05T10:51:12.111Z,8300
2017-09-05T10:52:12.157Z,8172
2017-09-05T10:53:12.153Z,8036
2017-09-05T10:54:11.884Z,8140
2017-09-05T10:55:12.389Z,8164
2017-09-05T10:56:12.001Z,7932
2017-09-05T10:57:12.024Z,7472
2017-09-05T10:58:12.757Z,9260
2017-09-05T10:59:12.748Z,8648
2017-09-05T11:00:14.089Z,7528
2017-09-05T11:01:12.545Z,7408
2017-09-05T11:02:12.913Z,7976
2017-09-05T11:03:13.019Z,8168
2017-09-05T11:04:12.666Z,7900
2017-09-05T11:05:13.548Z,7800
2017-09-05T11:06:13.148Z,7304
2017-09-05T11:07:13.189Z,7304
2017-09-05T11:08:13.592Z,7140
2017-09-05T11:09:13.295Z,7184
2017-09-05T11:10:13.123Z,7160
2017-09-05T11:11:13.812Z,7528
2017-09-05T11:12:13.823Z,7544
2017-09-05T11:13:13.580Z,7440
2017-09-05T11:14:13.282Z,7300
2017-09-05T11:15:14.067Z,7216
2017-09-05T11:16:13.361Z,6972
2017-09-05T11:17:13.720Z,6760
2017-09-05T11:18:13.751Z,6552
2017-09-05T11:19:13.867Z,6380
2017-09-05T11:20:13.913Z,6280
2017-09-05T11:21:13.952Z,6324
2017-09-05T11:22:14.382Z,6364
2017-09-05T11:23:14.784Z,6280
2017-09-05T11:24:14.507Z,6084
2017-09-05T11:25:14.852Z,5956
2017-09-05T11:26:14.941Z,5904
2017-09-05T11:27:14.383Z,5756
2017-09-05T11:28:14.747Z,5564
2017-09-05T11:29:15.481Z,5452
2017-09-05T11:30:15.271Z,5492
2017-09-05T11:31:15.926Z,5476
2017-09-05T11:32:16.009Z,5392
2017-09-05T11:33:15.717Z,5288
2017-09-05T11:34:16.046Z,5236
2017-09-05T11:35:16.580Z,5240
2017-09-05T11:36:16.452Z,5308
2017-09-05T11:37:16.473Z,5492
2017-09-05T11:38:15.921Z,5588
2017-09-05T11:39:16.012Z,5580
2017-09-05T11:40:16.745Z,5496
2017-09-05T11:41:16.859Z,5552
2017-09-05T11:42:17.170Z,5528
2017-09-05T11:43:16.963Z,5568
2017-09-05T11:44:16.978Z,5920
2017-09-05T11:45:17.279Z,6276
2017-09-05T11:46:17.356Z,6604
2017-09-05T11:47:17.361Z,6372
2017-09-05T11:48:17.387Z,6072
2017-09-05T11:49:17.155Z,5672
2017-09-05T11:50:17.810Z,5204
2017-09-05T11:51:17.288Z,4960
2017-09-05T11:52:17.288Z,4804
2017-09-05T11:53:17.372Z,4660
2017-09-05T11:54:17.764Z,4588
2017-09-05T11:55:18.206Z,4584
2017-09-05T11:56:17.523Z,4756
2017-09-05T11:57:18.218Z,4996
2017-09-05T11:58:18.579Z,4736
2017-09-05T11:59:18.550Z,4524
2017-09-05T12:00:20.055Z,4576
2017-09-05T12:01:18.686Z,4812
2017-09-05T12:02:18.393Z,4876
2017-09-05T12:03:18.441Z,4928
2017-09-05T12:04:19.140Z,4672
2017-09-05T12:05:19.278Z,4516
2017-09-05T12:06:18.586Z,4380
2017-09-05T12:07:18.620Z,4332
2017-09-05T12:08:19.381Z,4412
2017-09-05T12:09:19.350Z,4472
2017-09-05T12:10:19.086Z,4356
2017-09-05T12:11:19.543Z,4260
2017-09-05T12:12:20.543Z,4112
2017-09-05T12:13:20.884Z,4044
2017-09-05T12:14:20.644Z,3948
2017-09-05T12:15:21.052Z,3916
2017-09-05T12:16:21.077Z,3860
2017-09-05T12:17:21.116Z,3740
2017-09-05T12:18:21.450Z,3624
2017-09-05T12:19:21.513Z,3540
2017-09-05T12:20:21.242Z,3508
2017-09-05T12:21:21.563Z,3452
2017-09-05T12:22:21.934Z,3408
2017-09-05T12:23:21.328Z,3364
2017-09-05T12:24:21.387Z,3324
2017-09-05T12:25:22.148Z,3308
2017-09-05T12:26:22.178Z,3348
2017-09-05T12:27:22.616Z,3380
2017-09-05T12:28:22.649Z,3396
2017-09-05T12:29:23.646Z,3364
2017-09-05T12:30:23.083Z,3320
2017-09-05T12:31:23.447Z,3316
2017-09-05T12:32:23.484Z,3300
2017-09-05T12:33:24.155Z,3280
2017-09-05T12:34:24.481Z,3228
2017-09-05T12:35:23.971Z,3200
2017-09-05T12:36:24.660Z,3152
2017-09-05T12:37:24.386Z,3108
2017-09-05T12:38:24.714Z,3048
2017-09-05T12:39:24.811Z,2980
2017-09-05T12:40:24.208Z,2996
2017-09-05T12:41:24.954Z,2988
2017-09-05T12:42:24.945Z,2964
2017-09-05T12:43:25.255Z,2868
2017-09-05T12:44:24.740Z,2804
2017-09-05T12:45:25.150Z,2776
2017-09-05T12:46:25.163Z,2716
2017-09-05T12:47:25.808Z,2676
2017-09-05T12:48:25.209Z,2660
2017-09-05T12:49:25.902Z,2652
2017-09-05T12:50:26.245Z,2636
2017-09-05T12:51:25.709Z,2616
2017-09-05T12:52:26.356Z,2604
2017-09-05T12:53:27.055Z,2620
2017-09-05T12:54:27.092Z,2644
2017-09-05T12:55:26.774Z,2656
2017-09-05T12:56:27.145Z,2652
2017-09-05T12:57:26.512Z,2656
2017-09-05T12:58:26.577Z,2656
2017-09-05T12:59:27.282Z,2676
2017-09-05T13:00:27.024Z,2684
2017-09-05T13:01:27.717Z,2712
2017-09-05T13:02:27.854Z,2736
2017-09-05T13:03:27.753Z,2784
2017-09-05T13:04:27.824Z,2780
2017-09-05T13:05:27.865Z,2776
2017-09-05T13:06:27.930Z,2760
2017-09-05T13:07:28.927Z,2740
2017-09-05T13:08:28.943Z,2704
2017-09-05T13:09:29.261Z,2676
2017-09-05T13:10:29.348Z,2668
2017-09-05T13:11:29.071Z,2656
2017-09-05T13:12:29.497Z,2648
2017-09-05T13:13:29.237Z,2620
2017-09-05T13:14:30.262Z,2580
2017-09-05T13:15:30.274Z,2532
2017-09-05T13:16:30.301Z,2508
2017-09-05T13:17:30.035Z,2504
2017-09-05T13:18:30.364Z,2516
2017-09-05T13:19:30.208Z,2496
2017-09-05T13:20:30.277Z,2472
2017-09-05T13:21:30.577Z,2432
2017-09-05T13:22:30.346Z,2392
2017-09-05T13:23:29.779Z,2352
2017-09-05T13:24:30.506Z,2308
2017-09-05T13:25:30.463Z,2264
2017-09-05T13:26:30.818Z,2228
2017-09-05T13:27:30.258Z,2200
2017-09-05T13:28:30.365Z,2172
2017-09-05T13:29:31.304Z,2160
2017-09-05T13:30:31.921Z,2148
2017-09-05T13:31:31.033Z,2164
2017-09-05T13:32:31.699Z,2180
2017-09-05T13:33:31.753Z,2188
2017-09-05T13:34:31.149Z,2200
2017-09-05T13:35:31.524Z,2204
2017-09-05T13:36:31.572Z,2208
2017-09-05T13:37:31.901Z,2220
2017-09-05T13:38:31.606Z,2236
2017-09-05T13:39:31.346Z,2252
2017-09-05T13:40:31.996Z,2244